• Join FlightAware (Why Join?)
  • Login
  • US Flag 
02:33AM EDT


 

Airport Tracker/Info


-or-


 

Live Flight TrackerFlight Track Log ✈ FDX1254 ✈ 23-Apr-2013 ✈ KPVD - KFWA

Flight Track Log - Related Links

Times and Time Zones

All times are in EDT time to prevent confusion due to time zone crossing. See the FDX1254 flight status page for this flight to view local times or setup timezone preferences in your user account.

Time Position Orientation Groundspeed Altitude Reporting Facility
EDT Latitude Longitude Course Direction KTS MPH feet Rate Location/Type
08:52PM 41.8250 -71.5080 298° West 281 323 6,100  Level FlightAware
08:52PM 41.8470 -71.5600 300° West 283 326 8,300 3,780 Climbing FlightAware
08:53PM 41.8610 -71.5970 297° West 282 325 9,900 2,040 Climbing FlightAware
08:54PM 41.8920 -71.6780 297° West 350 403 10,700 1,320 Climbing FlightAware
08:54PM 41.9200 -71.7520 297° West 385 443 11,700 2,400 Climbing FlightAware
08:55PM 41.9590 -71.8590 296° West 392 451 14,100 2,640 Climbing FlightAware
08:56PM 41.9890 -71.9510 294° West 408 470 15,700 2,220 Climbing FlightAware
08:56PM 42.0150 -72.0340 293° West 417 480 17,100 1,080 Climbing FlightAware
08:57PM 42.0390 -72.1140 292° West 417 480 17,100 2,220 Level FlightAware
08:58PM 42.1030 -72.3220 293° West 442 509 21,400 2,940 Climbing FlightAware
08:59PM 42.1350 -72.4290 292° West 442 509 23,000 2,820 Climbing FlightAware
09:00PM 42.1660 -72.5300 293° West 427 491 25,200 2,100 Climbing FlightAware
09:01PM 42.1830 -72.5880 292° West 449 517 26,500 1,500 Climbing FlightAware
09:01PM 42.2520 -72.8150 292° West 464 534 28,000 1,380 Climbing FlightAware
09:02PM 42.2920 -72.9670 290° West 467 537 29,000 600 Climbing FlightAware
09:03PM 42.3150 -73.0610 288° West 467 537 29,000  Level FlightAware
09:04PM 42.3440 -73.1800 288° West 467 537 29,000 4,200 Level FlightAware
09:04PM 42.2640 -73.2610 217° Southwest 449 517 33,600 6,540 Climbing FlightAware
09:05PM 42.2540 -73.3690 263° West 448 516 35,000 2,220 Climbing FlightAware
09:05PM 42.2421 -73.5062 263° West 439 505 36,800 1,980 Climbing FlightAware ADS-B
09:06PM 42.2344 -73.5906 263° West 440 506 37,600 1,500 Climbing FlightAware ADS-B
09:07PM 42.2267 -73.6748 263° West 439 505 38,400 1,500 Climbing FlightAware ADS-B
09:07PM 42.2190 -73.7581 263° West 434 499 39,200 1,260 Climbing FlightAware ADS-B
09:08PM 42.2069 -73.8854 263° West 427 491 40,100 600 Climbing FlightAware ADS-B
09:08PM 42.1980 -73.9800 263° West 424 488 40,100  Level FlightAware
09:09PM 42.1887 -74.0767 263° West 424 488 40,100  Level FlightAware ADS-B
09:10PM 42.1790 -74.1740 262° West 424 488 40,100  Level FlightAware
09:10PM 42.1697 -74.2730 263° West 424 488 40,100  Level FlightAware ADS-B
09:11PM 42.1611 -74.3620 263° West 425 489 40,100  Level FlightAware ADS-B
09:11PM 42.1528 -74.4459 262° West 423 487 40,100  Level FlightAware ADS-B
09:12PM 42.1444 -74.5291 262° West 424 488 40,100  Level FlightAware ADS-B
09:12PM 42.1362 -74.6131 263° West 426 490 40,100  Level FlightAware ADS-B
09:13PM 42.1281 -74.6918 262° West 426 490 40,100  Level FlightAware ADS-B
09:13PM 42.1198 -74.7730 262° West 425 489 40,100  Level FlightAware ADS-B
09:14PM 42.1116 -74.8538 262° West 424 488 40,100  Level FlightAware ADS-B
09:15PM 42.1020 -74.9450 262° West 424 488 40,100  Level FlightAware ADS-B
09:15PM 42.0934 -75.0288 262° West 425 489 40,100  Level FlightAware ADS-B
09:16PM 42.0837 -75.1204 262° West 426 490 40,100  Level FlightAware ADS-B
09:16PM 42.0750 -75.2018 262° West 427 491 40,100  Level FlightAware ADS-B
09:17PM 42.0657 -75.2832 261° West 429 494 40,100  Level FlightAware ADS-B
09:17PM 42.0572 -75.3191 252° West 430 495 40,100  Level FlightAware ADS-B
09:17PM 42.0379 -75.3778 246° West 432 497 40,100  Level FlightAware ADS-B
09:18PM 42.0160 -75.4324 242° Southwest 433 498 40,100  Level FlightAware ADS-B
09:18PM 41.9850 -75.5075 241° Southwest 434 499 40,100  Level FlightAware ADS-B
09:19PM 41.9520 -75.5850 240° Southwest 436 502 40,100  Level FlightAware
09:19PM 41.9365 -75.6230 241° Southwest 436 502 40,100  Level FlightAware ADS-B
09:20PM 41.9120 -75.6800 240° Southwest 438 504 40,100  Level FlightAware
09:20PM 41.8964 -75.7178 241° Southwest 438 504 40,100  Level FlightAware ADS-B
09:20PM 41.8572 -75.8131 241° Southwest 439 505 40,100  Level FlightAware ADS-B
09:21PM 41.8166 -75.9107 241° Southwest 440 506 40,100  Level FlightAware ADS-B
09:22PM 41.7831 -75.9912 241° Southwest 439 505 40,100  Level FlightAware ADS-B
09:22PM 41.7528 -76.0623 240° Southwest 439 505 40,100  Level FlightAware ADS-B
09:23PM 41.7189 -76.1430 241° Southwest 441 507 40,100  Level FlightAware ADS-B
09:23PM 41.6876 -76.2190 241° Southwest 442 509 40,100  Level FlightAware ADS-B
09:24PM 41.6590 -76.2860 240° Southwest 443 510 40,100  Level FlightAware
09:24PM 41.6366 -76.3384 240° Southwest 444 511 40,100  Level FlightAware ADS-B
09:25PM 41.6045 -76.4145 241° Southwest 443 510 40,100  Level FlightAware ADS-B
09:25PM 41.5719 -76.4906 240° Southwest 444 511 40,100  Level FlightAware ADS-B
09:26PM 41.5407 -76.5645 241° Southwest 445 512 40,100  Level FlightAware ADS-B
09:26PM 41.5101 -76.6361 240° Southwest 447 514 40,100  Level FlightAware ADS-B
09:27PM 41.4774 -76.7131 240° Southwest 449 517 40,100  Level FlightAware ADS-B
09:27PM 41.4444 -76.7878 240° Southwest 452 520 40,100  Level FlightAware ADS-B
09:28PM 41.4038 -76.8820 240° Southwest 454 522 40,100  Level FlightAware ADS-B
09:28PM 41.3694 -76.9619 240° Southwest 454 522 40,100  Level FlightAware ADS-B
09:29PM 41.3351 -77.0418 240° Southwest 454 522 40,100  Level FlightAware ADS-B
09:29PM 41.3037 -77.1140 240° Southwest 452 520 40,100  Level FlightAware ADS-B
09:30PM 41.2714 -77.1884 240° Southwest 452 520 40,100  Level FlightAware ADS-B
09:31PM 41.2337 -77.2747 240° Southwest 452 520 40,100  Level FlightAware ADS-B
09:32PM 41.1730 -77.4110 239° Southwest 451 519 40,100  Level FlightAware
09:32PM 41.1320 -77.5040 240° Southwest 450 518 40,100  Level FlightAware
09:33PM 41.0940 -77.5900 240° Southwest 451 519 40,100  Level FlightAware
09:34PM 41.0540 -77.6830 240° Southwest 450 518 40,100  Level FlightAware
09:34PM 41.0080 -77.7860 239° Southwest 451 519 40,100  Level FlightAware
09:35PM 40.9610 -77.8930 240° Southwest 452 520 40,100  Level FlightAware
09:36PM 40.9210 -77.9980 243° Southwest 447 514 40,100  Level FlightAware
09:36PM 40.9110 -78.1110 263° West 444 511 40,100  Level FlightAware
09:37PM 40.9100 -78.2600 270° West 444 511 40,100  Level FlightAware
09:38PM 40.9120 -78.3770 271° West 444 511 40,100  Level FlightAware
09:39PM 40.9130 -78.4880 271° West 443 510 40,100  Level FlightAware
09:40PM 40.9140 -78.6120 271° West 441 507 40,100  Level FlightAware
09:40PM 40.9150 -78.7180 271° West 431 496 40,100  Level FlightAware
09:41PM 40.9150 -78.8190 270° West 426 490 40,100  Level FlightAware
09:42PM 40.9160 -78.9310 271° West 423 487 40,100  Level FlightAware
09:42PM 40.9160 -79.0390 270° West 421 484 40,100  Level FlightAware
09:43PM 40.9160 -79.1310 270° West 419 482 40,100  Level FlightAware
09:44PM 40.9160 -79.2540 270° West 418 481 40,100  Level FlightAware
09:44PM 40.9170 -79.3550 271° West 415 478 40,100  Level FlightAware
09:45PM 40.9160 -79.4710 269° West 412 474 40,100  Level FlightAware
09:46PM 40.9160 -79.5810 270° West 409 471 40,100 -360 Level FlightAware
09:47PM 40.9160 -79.7550 270° West 398 458 39,500 -780 Descending FlightAware
09:48PM 40.9150 -79.8540 269° West 384 442 38,700 -1,020 Descending FlightAware
09:48PM 40.9150 -79.9600 270° West 387 445 38,100 -480 Descending FlightAware
09:49PM 40.9140 -80.0570 269° West 389 448 38,100  Level FlightAware
09:50PM 40.9140 -80.1640 270° West 394 453 38,100  Level FlightAware
09:50PM 40.9130 -80.2590 269° West 399 459 38,100  Level FlightAware
09:51PM 40.9120 -80.3540 269° West 398 458 38,100  Level FlightAware
09:52PM 40.9110 -80.4650 269° West 397 457 38,100  Level FlightAware
09:53PM 40.9100 -80.5650 269° West 397 457 38,100  Level FlightAware
09:53PM 40.9090 -80.6710 269° West 397 457 38,100  Level FlightAware
09:54PM 40.9080 -80.7680 269° West 396 456 38,100  Level FlightAware
09:55PM 40.9070 -80.8670 269° West 395 455 38,100  Level FlightAware
09:55PM 40.9050 -80.9680 269° West 392 451 38,100  Level FlightAware
09:56PM 40.9040 -81.0680 269° West 389 448 38,100  Level FlightAware
09:57PM 40.9030 -81.1600 269° West 387 445 38,100  Level FlightAware
09:57PM 40.9010 -81.2710 269° West 386 444 38,100  Level FlightAware
09:58PM 40.8990 -81.3630 268° West 384 442 38,100  Level FlightAware
09:59PM 40.8980 -81.4680 269° West 384 442 38,100  Level FlightAware
10:00PM 40.8960 -81.5590 268° West 384 442 38,100  Level FlightAware
10:00PM 40.8940 -81.6580 269° West 385 443 38,100  Level FlightAware
10:01PM 40.8950 -81.7620 271° West 386 444 38,100  Level FlightAware
10:02PM 40.8970 -81.8580 272° West 387 445 38,100  Level FlightAware
10:02PM 40.8990 -81.9600 272° West 387 445 38,100  Level FlightAware
10:03PM 40.9010 -82.0570 272° West 389 448 38,100  Level FlightAware
10:04PM 40.9030 -82.1500 272° West 390 449 38,100  Level FlightAware
10:04PM 40.9050 -82.2620 271° West 392 451 38,100  Level FlightAware
10:05PM 40.9060 -82.3500 271° West 392 451 38,100  Level FlightAware
10:06PM 40.9090 -82.4650 272° West 391 450 38,100  Level FlightAware
10:07PM 40.9140 -82.5860 273° West 390 449 38,100  Level FlightAware
10:08PM 40.9190 -82.6980 273° West 391 450 38,100 -240 Level FlightAware
10:08PM 40.9220 -82.7820 273° West 390 449 37,800 -1,080 Descending FlightAware
10:09PM 40.9260 -82.8920 273° West 394 453 36,700 -1,380 Descending FlightAware
10:10PM 40.9290 -83.0000 272° West 395 455 35,800 -1,320 Descending FlightAware
10:10PM 40.9330 -83.0970 273° West 396 456 34,900 -1,500 Descending FlightAware
10:11PM 40.9370 -83.2090 273° West 402 463 33,700 -1,500 Descending FlightAware
10:12PM 40.9400 -83.3020 272° West 404 465 32,800 -1,680 Descending FlightAware
10:12PM 40.9430 -83.4020 272° West 410 472 31,500 -2,100 Descending FlightAware
10:13PM 40.9460 -83.5060 272° West 419 482 30,000 -3,120 Descending FlightAware
10:14PM 40.9500 -83.6210 273° West 424 488 27,100 -3,780 Descending FlightAware
10:15PM 40.9530 -83.7390 272° West 413 475 24,400 -3,480 Descending FlightAware
10:15PM 40.9560 -83.8340 272° West 403 464 22,200 -3,480 Descending FlightAware
10:16PM 40.9590 -83.9430 272° West 376 433 19,500 -3,420 Descending FlightAware
10:17PM 40.9610 -84.0220 272° West 367 422 17,700 -3,180 Descending FlightAware
10:17PM 40.9640 -84.1190 272° West 355 409 15,300 -3,300 Descending FlightAware
10:18PM 40.9660 -84.2210 272° West 354 407 12,800 -2,340 Descending FlightAware
10:19PM 40.9670 -84.3050 271° West 342 394 12,000 -1,080 Descending FlightAware
10:19PM 40.9690 -84.3840 272° West 311 358 11,400 -660 Descending FlightAware
10:20PM 40.9700 -84.4630 271° West 277 319 11,100 -240 Descending FlightAware
10:21PM 40.9710 -84.5280 271° West 263 303 11,100 -540 Level FlightAware
10:22PM 40.9820 -84.6020 281° West 273 314 10,400 -1,200 Descending FlightAware
10:22PM 40.9930 -84.6380 292° West 258 297 9,700 -1,680 Descending FlightAware
10:22PM 41.0070 -84.6820 293° West 239 275 8,900 -1,800 Descending FlightAware
10:23PM 41.0160 -84.7130 291° West 231 266 8,100 -1,140 Descending FlightAware
10:24PM 41.0320 -84.7620 293° West 231 266 7,700 -1,440 Descending FlightAware
10:25PM 41.0539 -84.8331 293° West 225 259 5,700 -1,500 Descending Chicago Center
10:26PM 41.0761 -84.9039 293° West 215 247 4,600 -1,200 Descending Chicago Center
10:27PM 41.0986 -84.9756 293° West 212 244 3,300 -840 Descending Chicago Center
10:28PM 41.0983 -85.0361 270° West 194 223 3,000 -420 Descending Chicago Center
10:29PM 41.0622 -85.0831 224° Southwest 162 186 2,500 -360 Descending Chicago Center
10:30PM 41.0367 -85.1156 224° Southwest 146 168 2,300 -240 Descending Chicago Center